createdAt,value
2022-12-01T00:08:51.130Z,4.6
2022-12-01T00:18:53.250Z,4.7
2022-12-01T00:28:55.098Z,4.7
2022-12-01T00:38:57.663Z,4.6
2022-12-01T00:48:59.693Z,4.6
2022-12-01T00:59:01.422Z,4.6
2022-12-01T01:09:03.818Z,4.6
2022-12-01T01:19:05.793Z,4.6
2022-12-01T01:29:08.135Z,4.5
2022-12-01T01:39:10.217Z,4.5
2022-12-01T01:49:12.496Z,4.6
2022-12-01T01:59:14.307Z,4.6
2022-12-01T03:29:33.441Z,4.7
2022-12-01T04:29:46.444Z,4.7
2022-12-01T05:09:55.004Z,4.6
2022-12-01T05:29:59.087Z,4.6
2022-12-01T05:40:01.297Z,4.5
2022-12-01T05:50:05.671Z,4.4
2022-12-01T06:00:06.025Z,4.4
2022-12-01T06:10:07.761Z,4.4
2022-12-01T06:30:11.815Z,4.3
2022-12-01T06:40:14.212Z,4.4
2022-12-01T06:50:16.841Z,4.4
2022-12-01T07:00:19.175Z,4.4
2022-12-01T07:10:21.338Z,4.4
2022-12-01T07:20:23.451Z,4.4
2022-12-01T07:30:28.506Z,4.3
2022-12-01T07:40:28.351Z,4.3
2022-12-01T07:50:30.080Z,4.3
2022-12-01T08:00:32.509Z,4.3
2022-12-01T08:10:35.040Z,4.4
2022-12-01T08:20:36.770Z,4.3
2022-12-01T08:30:39.252Z,4.4
2022-12-01T08:40:41.313Z,4.4
2022-12-01T08:50:43.346Z,4.3
2022-12-01T09:00:45.881Z,4.4
2022-12-01T09:10:48.352Z,4.4
2022-12-01T09:20:50.572Z,4.4
2022-12-01T09:30:52.670Z,4.4
2022-12-01T09:40:54.760Z,4.5
2022-12-01T09:50:56.499Z,4.6
2022-12-01T10:00:58.665Z,4.7
2022-12-01T10:11:01.068Z,4.8
2022-12-01T10:21:03.284Z,4.7
2022-12-01T10:31:05.058Z,4.7
2022-12-01T10:41:07.249Z,4.7
2022-12-01T10:51:09.042Z,4.8
2022-12-01T11:01:11.583Z,4.9
2022-12-01T11:11:13.599Z,4.8
2022-12-01T11:21:15.799Z,4.9
2022-12-01T11:31:18.117Z,4.8
2022-12-01T11:41:20.021Z,4.9
2022-12-01T11:51:21.854Z,5
2022-12-01T12:01:24.390Z,4.9
2022-12-01T12:11:26.580Z,5
2022-12-01T12:21:28.304Z,5
2022-12-01T12:31:30.040Z,5.1
2022-12-01T12:41:31.732Z,4.9
2022-12-01T12:51:33.562Z,5
2022-12-01T13:01:36.038Z,5
2022-12-01T13:11:38.604Z,5
2022-12-01T13:21:40.665Z,5
2022-12-01T13:31:42.901Z,5.1
2022-12-01T13:41:44.707Z,5
2022-12-01T13:51:46.418Z,4.9
2022-12-01T14:01:48.370Z,4.9
2022-12-01T14:11:50.883Z,4.9
2022-12-01T14:21:53.181Z,4.9
2022-12-01T14:31:55.531Z,4.8
2022-12-01T14:41:58.098Z,4.9
2022-12-01T14:52:00.073Z,4.8
2022-12-01T15:02:02.639Z,4.7
2022-12-01T15:22:06.618Z,4.6
2022-12-01T15:32:09.163Z,4.6
2022-12-01T15:42:11.411Z,4.6
2022-12-01T15:52:13.218Z,4.5
2022-12-01T16:02:15.509Z,4.4
2022-12-01T16:22:19.955Z,4.2
2022-12-01T17:12:37.302Z,3.8
2022-12-01T17:42:48.709Z,3.7
2022-12-01T19:23:05.748Z,3.5
2022-12-01T19:33:07.390Z,3.4
2022-12-01T19:43:09.988Z,3.4
2022-12-01T19:53:11.974Z,3.3
2022-12-01T20:13:16.837Z,3.3
2022-12-01T20:23:18.613Z,3.3
2022-12-01T20:33:20.506Z,3.3
2022-12-01T20:53:24.453Z,3.2
2022-12-01T21:03:26.847Z,3.2
2022-12-01T21:13:29.260Z,3.1
2022-12-01T21:23:31.158Z,3
2022-12-01T21:33:33.080Z,2.9
2022-12-01T21:43:38.180Z,2.9
2022-12-01T21:53:37.748Z,2.9
2022-12-01T22:03:39.940Z,2.7
2022-12-01T22:13:42.165Z,2.6
2022-12-01T22:23:44.649Z,2.6
2022-12-01T22:33:46.467Z,2.5
2022-12-01T22:43:48.138Z,2.4
2022-12-01T22:53:50.646Z,2.3
2022-12-01T23:13:54.537Z,2.1
2022-12-01T23:23:56.920Z,2.1
2022-12-01T23:33:59.201Z,2.1
2022-12-01T23:44:01.196Z,2.1
2022-12-01T23:54:03.003Z,2.1
